Rose Bud, Arkansas
Current Conditions -  °F | °C
As of 5:56 PM on Sunday 21 Dec 2014 (Local Time) from KSRC Reporting Station
Overcast Overcast  
Wind Chill: 48°   Ceiling: 10000
Heat Index: 48°   Visibility: 10mi
Dew Point: 37°   Wind: 0mph
Humidity: 66%   Direction: NA
Pressure: 29.99"   Gusts: NA
Location:  35.33°N, 92.08°W
Report Text: KSRC 212356Z AUTO 00000KT 10SM SCT085 OVC100 09/03 A2999 RMK AO2 SLP161 T00890028 10128 20089 56015 TSNO
Loading
Personal Weather Stations






























Interactive Weather Map New forecast layout! Learn more

10-Day Weather Forecast

Advertisements
Track Severe Weather on mobile